Wetterdaten: Woche 13.07.09 - 19.07.09 (KW29)
Datum Zeit Temperatur Luftfeuchte Luftdruck Niederschlag Windrichtung Wind
13.07.2009 00:00 16,3 C 94 % 1013,4 hPa 0,4 l/m SW 8,4 km/h (2 Bft)
13.07.2009 01:00 16,1 C 96 % 1013,2 hPa 0,6 l/m SW 14,1 km/h (3 Bft)
13.07.2009 02:00 15,8 C 96 % 1013,1 hPa 0,0 l/m SW 10,7 km/h (2 Bft)
13.07.2009 03:00 16,1 C 96 % 1013,0 hPa 0,0 l/m W-SW 5,8 km/h (1 Bft)
13.07.2009 04:00 15,8 C 97 % 1013,1 hPa 0,0 l/m SW 2,0 km/h (1 Bft)
13.07.2009 05:00 15,7 C 98 % 1013,3 hPa 0,0 l/m N 0,9 km/h (0 Bft)
13.07.2009 06:00 15,7 C 98 % 1013,4 hPa 0,0 l/m N 0,7 km/h (0 Bft)
13.07.2009 07:00 16,2 C 97 % 1013,4 hPa 0,0 l/m SW 7,9 km/h (2 Bft)
13.07.2009 08:00 17,2 C 95 % 1013,5 hPa 0,0 l/m SW 12,0 km/h (2 Bft)
13.07.2009 09:00 18,6 C 92 % 1013,8 hPa 0,0 l/m SW 11,3 km/h (2 Bft)
13.07.2009 10:00 21,2 C 82 % 1013,6 hPa 0,0 l/m W-NW 12,5 km/h (3 Bft)
13.07.2009 11:00 22,9 C 73 % 1013,3 hPa 0,0 l/m SW 12,1 km/h (2 Bft)
13.07.2009 12:00 24,1 C 71 % 1013,1 hPa 0,0 l/m W-SW 14,9 km/h (3 Bft)
13.07.2009 13:00 25,2 C 62 % 1012,6 hPa 0,0 l/m W-SW 16,8 km/h (3 Bft)
13.07.2009 14:00 24,7 C 65 % 1012,3 hPa 0,0 l/m SW 16,4 km/h (3 Bft)
13.07.2009 15:00 23,7 C 69 % 1012,3 hPa 0,0 l/m SW 9,1 km/h (2 Bft)
13.07.2009 16:00 23,8 C 66 % 1011,8 hPa 0,0 l/m SW 4,1 km/h (1 Bft)
13.07.2009 17:00 24,1 C 65 % 1011,3 hPa 0,0 l/m O-SO 5,9 km/h (2 Bft)
13.07.2009 18:00 24,3 C 65 % 1010,6 hPa 0,0 l/m O-SO 7,3 km/h (2 Bft)
13.07.2009 19:00 23,9 C 69 % 1010,2 hPa 0,0 l/m O 5,9 km/h (2 Bft)
13.07.2009 20:00 22,4 C 77 % 1010,2 hPa 0,0 l/m N-NO 6,5 km/h (2 Bft)
13.07.2009 21:00 20,4 C 85 % 1010,2 hPa 0,0 l/m N 7,6 km/h (2 Bft)
13.07.2009 22:00 19,6 C 88 % 1010,2 hPa 0,0 l/m N-NO 5,5 km/h (1 Bft)
13.07.2009 23:00 18,9 C 90 % 1010,2 hPa 0,0 l/m N-NW 3,9 km/h (1 Bft)
14.07.2009 00:00 18,5 C 92 % 1009,3 hPa 0,0 l/m N-NW 2,8 km/h (1 Bft)
14.07.2009 01:00 18,1 C 93 % 1008,8 hPa 0,0 l/m NO 2,3 km/h (1 Bft)
14.07.2009 02:00 17,7 C 94 % 1008,9 hPa 0,0 l/m N 0,7 km/h (0 Bft)
14.07.2009 03:00 16,7 C 96 % 1009,2 hPa 0,0 l/m N-NO 2,3 km/h (1 Bft)
14.07.2009 04:00 16,8 C 97 % 1010,0 hPa 0,0 l/m NW 7,4 km/h (2 Bft)
14.07.2009 05:00 17,0 C 96 % 1010,9 hPa 0,0 l/m S-SW 2,9 km/h (1 Bft)
14.07.2009 06:00 17,0 C 96 % 1011,5 hPa 0,0 l/m S-SW 2,0 km/h (1 Bft)
14.07.2009 07:00 17,8 C 95 % 1012,6 hPa 0,0 l/m W-NW 3,9 km/h (1 Bft)
14.07.2009 08:00 18,4 C 94 % 1013,1 hPa 0,0 l/m S-SW 5,2 km/h (1 Bft)
14.07.2009 09:00 19,5 C 89 % 1013,5 hPa 0,0 l/m SW 13,5 km/h (3 Bft)
14.07.2009 10:00 20,1 C 90 % 1013,7 hPa 0,0 l/m S-SW 25,1 km/h (4 Bft)
14.07.2009 11:00 21,6 C 84 % 1013,6 hPa 0,0 l/m SW 24,7 km/h (4 Bft)
14.07.2009 12:00 22,2 C 81 % 1013,2 hPa 0,0 l/m SW 16,6 km/h (3 Bft)
14.07.2009 13:00 23,5 C 73 % 1012,7 hPa 0,0 l/m SW 12,4 km/h (3 Bft)
14.07.2009 14:00 25,6 C 63 % 1012,3 hPa 0,0 l/m W 10,3 km/h (2 Bft)
14.07.2009 15:00 25,8 C 57 % 1012,0 hPa 0,0 l/m NW 7,8 km/h (2 Bft)
14.07.2009 16:00 25,9 C 56 % 1011,8 hPa 0,0 l/m NW 4,0 km/h (1 Bft)
14.07.2009 17:00 26,6 C 53 % 1011,7 hPa 0,0 l/m O-SO 7,2 km/h (2 Bft)
14.07.2009 18:00 26,7 C 52 % 1011,5 hPa 0,0 l/m O-SO 10,2 km/h (2 Bft)
14.07.2009 19:00 25,5 C 57 % 1011,3 hPa 0,0 l/m O 7,8 km/h (2 Bft)
14.07.2009 20:00 24,2 C 66 % 1011,2 hPa 0,0 l/m O 4,8 km/h (1 Bft)
14.07.2009 21:00 21,6 C 78 % 1011,0 hPa 0,0 l/m O-NO 5,6 km/h (1 Bft)
14.07.2009 22:00 21,7 C 74 % 1011,1 hPa 0,0 l/m NO 9,1 km/h (2 Bft)
14.07.2009 23:00 21,2 C 79 % 1012,1 hPa 0,0 l/m N-NO 14,8 km/h (3 Bft)
15.07.2009 00:00 20,0 C 88 % 1013,8 hPa 0,4 l/m N 18,4 km/h (3 Bft)
15.07.2009 01:00 19,3 C 91 % 1013,9 hPa 1,8 l/m NW 13,8 km/h (3 Bft)
15.07.2009 02:00 18,6 C 94 % 1013,6 hPa 1,4 l/m N-NO 11,5 km/h (2 Bft)
15.07.2009 03:00 18,1 C 95 % 1015,8 hPa 0,2 l/m NO 19,2 km/h (3 Bft)
15.07.2009 04:00 16,8 C 94 % 1016,4 hPa 6,2 l/m N-NW 11,0 km/h (2 Bft)
15.07.2009 05:00 16,3 C 96 % 1016,7 hPa 0,0 l/m N-NO 3,2 km/h (1 Bft)
15.07.2009 06:00 16,3 C 97 % 1016,8 hPa 0,0 l/m N-NW 4,0 km/h (1 Bft)
15.07.2009 07:00 16,3 C 97 % 1017,7 hPa 0,8 l/m W-SW 3,5 km/h (1 Bft)
15.07.2009 08:00 16,5 C 97 % 1017,8 hPa 0,2 l/m W 2,5 km/h (1 Bft)
15.07.2009 09:00 16,4 C 97 % 1017,8 hPa 1,2 l/m W 2,3 km/h (1 Bft)
15.07.2009 10:00 16,8 C 97 % 1018,2 hPa 1,4 l/m S-SW 6,3 km/h (2 Bft)
15.07.2009 11:00 16,9 C 97 % 1018,5 hPa 3,2 l/m S-SW 7,1 km/h (2 Bft)
15.07.2009 12:00 17,6 C 96 % 1018,4 hPa 0,0 l/m S-SW 6,3 km/h (2 Bft)
15.07.2009 13:00 19,0 C 92 % 1018,1 hPa 0,0 l/m S-SO 6,9 km/h (2 Bft)
15.07.2009 14:00 21,1 C 83 % 1018,0 hPa 0,0 l/m SO 7,1 km/h (2 Bft)
15.07.2009 15:00 22,8 C 73 % 1017,8 hPa 0,0 l/m S-SW 7,0 km/h (2 Bft)
15.07.2009 16:00 23,7 C 70 % 1017,7 hPa 0,0 l/m SW 7,6 km/h (2 Bft)
15.07.2009 17:00 23,8 C 70 % 1017,8 hPa 0,0 l/m W-NW 4,4 km/h (1 Bft)
15.07.2009 18:00 23,1 C 73 % 1017,6 hPa 0,0 l/m W-NW 3,9 km/h (1 Bft)
15.07.2009 19:00 23,0 C 76 % 1017,6 hPa 0,0 l/m N-NO 2,7 km/h (1 Bft)
15.07.2009 20:00 21,4 C 85 % 1018,0 hPa 0,0 l/m N 2,1 km/h (1 Bft)
15.07.2009 21:00 19,3 C 91 % 1018,5 hPa 0,0 l/m N 1,1 km/h (0 Bft)
15.07.2009 22:00 18,5 C 94 % 1019,0 hPa 0,0 l/m N 0,5 km/h (0 Bft)
15.07.2009 23:00 18,3 C 95 % 1019,3 hPa 0,0 l/m N 0,3 km/h (0 Bft)
16.07.2009 00:00 18,0 C 96 % 1019,6 hPa 0,0 l/m N 0,5 km/h (0 Bft)
16.07.2009 01:00 17,9 C 95 % 1020,0 hPa 0,0 l/m N 0,3 km/h (0 Bft)
16.07.2009 02:00 17,4 C 96 % 1019,9 hPa 0,2 l/m N 0,3 km/h (0 Bft)
16.07.2009 03:00 16,7 C 97 % 1020,0 hPa 0,0 l/m N 0,0 km/h (0 Bft)
16.07.2009 04:00 16,7 C 98 % 1020,3 hPa 0,0 l/m N 4,3 km/h (1 Bft)
16.07.2009 05:00 16,8 C 98 % 1020,6 hPa 0,0 l/m N 2,4 km/h (1 Bft)
16.07.2009 06:00 16,6 C 98 % 1021,0 hPa 0,0 l/m N 0,0 km/h (0 Bft)
16.07.2009 07:00 17,7 C 96 % 1021,3 hPa 0,0 l/m N 0,9 km/h (0 Bft)
16.07.2009 08:00 19,4 C 87 % 1021,4 hPa 0,0 l/m NO 5,4 km/h (1 Bft)
16.07.2009 09:00 20,8 C 76 % 1021,1 hPa 0,0 l/m NO 9,4 km/h (2 Bft)
16.07.2009 10:00 22,5 C 72 % 1020,8 hPa 0,0 l/m O-SO 8,9 km/h (2 Bft)
16.07.2009 11:00 23,6 C 71 % 1020,4 hPa 0,0 l/m O-SO 8,9 km/h (2 Bft)
16.07.2009 12:00 24,6 C 68 % 1019,9 hPa 0,0 l/m O-SO 6,9 km/h (2 Bft)
16.07.2009 13:00 26,2 C 63 % 1019,4 hPa 0,0 l/m O 7,6 km/h (2 Bft)
16.07.2009 14:00 26,7 C 61 % 1018,8 hPa 0,0 l/m N-NO 8,4 km/h (2 Bft)
16.07.2009 15:00 27,4 C 57 % 1018,2 hPa 0,0 l/m SO 9,8 km/h (2 Bft)
16.07.2009 16:00 27,7 C 55 % 1017,6 hPa 0,0 l/m SW 8,3 km/h (2 Bft)
16.07.2009 17:00 27,8 C 54 % 1016,9 hPa 0,0 l/m S-SW 6,3 km/h (2 Bft)
16.07.2009 18:00 27,8 C 54 % 1016,4 hPa 0,0 l/m SW 6,3 km/h (2 Bft)
16.07.2009 19:00 26,8 C 60 % 1016,0 hPa 0,0 l/m SW 4,9 km/h (1 Bft)
16.07.2009 20:00 24,1 C 76 % 1015,5 hPa 0,0 l/m SW 2,0 km/h (1 Bft)
16.07.2009 21:00 21,7 C 84 % 1015,2 hPa 0,0 l/m N 0,9 km/h (0 Bft)
16.07.2009 22:00 20,5 C 88 % 1014,5 hPa 0,0 l/m W-NW 1,5 km/h (1 Bft)
16.07.2009 23:00 19,4 C 92 % 1013,7 hPa 0,0 l/m N 1,5 km/h (1 Bft)
17.07.2009 00:00 18,7 C 93 % 1013,2 hPa 0,0 l/m W-NW 2,5 km/h (1 Bft)
17.07.2009 01:00 18,1 C 94 % 1012,1 hPa 0,0 l/m W-NW 2,7 km/h (1 Bft)
17.07.2009 02:00 17,5 C 95 % 1010,9 hPa 0,0 l/m W-NW 2,0 km/h (1 Bft)
17.07.2009 03:00 17,2 C 96 % 1009,9 hPa 0,0 l/m W-NW 3,1 km/h (1 Bft)
17.07.2009 04:00 17,4 C 95 % 1009,6 hPa 0,0 l/m N-NW 7,0 km/h (2 Bft)
17.07.2009 05:00 18,1 C 93 % 1010,3 hPa 0,0 l/m W-NW 15,3 km/h (3 Bft)
17.07.2009 06:00 19,1 C 79 % 1011,5 hPa 0,0 l/m W 21,4 km/h (4 Bft)
17.07.2009 07:00 19,6 C 77 % 1012,6 hPa 0,0 l/m W-SW 22,4 km/h (4 Bft)
17.07.2009 08:00 18,9 C 84 % 1013,0 hPa 1,2 l/m W-SW 20,1 km/h (4 Bft)
17.07.2009 09:00 17,4 C 94 % 1012,7 hPa 1,4 l/m W 22,0 km/h (4 Bft)
17.07.2009 10:00 17,8 C 93 % 1012,1 hPa 0,0 l/m W-SW 22,0 km/h (4 Bft)
17.07.2009 11:00 18,8 C 90 % 1011,8 hPa 0,0 l/m W-SW 16,4 km/h (3 Bft)
17.07.2009 12:00 18,6 C 87 % 1012,0 hPa 0,0 l/m SW 20,0 km/h (4 Bft)
17.07.2009 13:00 17,8 C 93 % 1011,4 hPa 0,8 l/m S-SW 13,2 km/h (3 Bft)
17.07.2009 14:00 17,5 C 94 % 1010,0 hPa 0,6 l/m SW 11,0 km/h (2 Bft)
17.07.2009 15:00 19,6 C 86 % 1008,9 hPa 0,0 l/m SW 12,0 km/h (2 Bft)
17.07.2009 16:00 20,5 C 78 % 1007,8 hPa 0,0 l/m S-SO 7,4 km/h (2 Bft)
17.07.2009 17:00 21,0 C 73 % 1006,4 hPa 0,0 l/m NO 7,2 km/h (2 Bft)
17.07.2009 18:00 20,0 C 82 % 1006,4 hPa 0,4 l/m NW 7,0 km/h (2 Bft)
17.07.2009 19:00 16,0 C 90 % 1007,7 hPa 8,2 l/m W-NW 29,4 km/h (5 Bft)
17.07.2009 20:00 13,1 C 95 % 1010,1 hPa 4,8 l/m W 14,9 km/h (3 Bft)
17.07.2009 21:00 12,9 C 95 % 1010,5 hPa 2,2 l/m W 9,7 km/h (2 Bft)
17.07.2009 22:00 12,8 C 95 % 1011,1 hPa 5,2 l/m W-SW 19,9 km/h (4 Bft)
17.07.2009 23:00 11,6 C 95 % 1011,3 hPa 2,2 l/m W 23,7 km/h (4 Bft)
18.07.2009 00:00 11,4 C 95 % 1011,0 hPa 0,6 l/m W 16,8 km/h (3 Bft)
18.07.2009 01:00 11,5 C 96 % 1011,4 hPa 1,6 l/m W-SW 12,4 km/h (3 Bft)
18.07.2009 02:00 11,6 C 96 % 1011,4 hPa 2,4 l/m W-SW 16,1 km/h (3 Bft)
18.07.2009 03:00 11,1 C 95 % 1011,7 hPa 3,2 l/m W-SW 20,5 km/h (4 Bft)
18.07.2009 04:00 10,5 C 96 % 1011,8 hPa 0,4 l/m SW 16,6 km/h (3 Bft)
18.07.2009 05:00 10,4 C 97 % 1011,4 hPa 0,0 l/m W 12,6 km/h (3 Bft)
18.07.2009 06:00 10,4 C 96 % 1011,1 hPa 0,0 l/m W-SW 19,7 km/h (3 Bft)
18.07.2009 07:00 10,8 C 96 % 1011,5 hPa 0,0 l/m SW 17,7 km/h (3 Bft)
18.07.2009 08:00 11,3 C 93 % 1011,9 hPa 0,0 l/m W-SW 20,2 km/h (4 Bft)
18.07.2009 09:00 12,0 C 91 % 1012,0 hPa 0,0 l/m W-SW 20,8 km/h (4 Bft)
18.07.2009 10:00 12,8 C 88 % 1011,6 hPa 0,2 l/m W 21,8 km/h (4 Bft)
18.07.2009 11:00 13,8 C 84 % 1012,5 hPa 0,0 l/m W 20,0 km/h (4 Bft)
18.07.2009 12:00 13,7 C 85 % 1012,6 hPa 0,0 l/m W-SW 18,4 km/h (3 Bft)
18.07.2009 13:00 13,7 C 90 % 1012,5 hPa 3,4 l/m W 15,8 km/h (3 Bft)
18.07.2009 14:00 13,6 C 94 % 1012,9 hPa 1,8 l/m W-NW 16,8 km/h (3 Bft)
18.07.2009 15:00 14,7 C 85 % 1013,2 hPa 0,0 l/m NW 26,8 km/h (4 Bft)
18.07.2009 16:00 15,2 C 77 % 1013,8 hPa 0,0 l/m W 25,1 km/h (4 Bft)
18.07.2009 17:00 15,4 C 72 % 1014,2 hPa 0,0 l/m W-NW 22,8 km/h (4 Bft)
18.07.2009 18:00 14,5 C 77 % 1014,7 hPa 0,0 l/m W-SW 20,1 km/h (4 Bft)
18.07.2009 19:00 14,7 C 75 % 1015,2 hPa 0,0 l/m W 14,7 km/h (3 Bft)
18.07.2009 20:00 13,6 C 78 % 1015,7 hPa 0,0 l/m W-SW 17,3 km/h (3 Bft)
18.07.2009 21:00 12,9 C 83 % 1016,3 hPa 0,0 l/m W-SW 15,8 km/h (3 Bft)
18.07.2009 22:00 12,6 C 83 % 1016,9 hPa 0,0 l/m W-SW 19,6 km/h (3 Bft)
18.07.2009 23:00 12,5 C 83 % 1017,4 hPa 0,0 l/m W-SW 18,2 km/h (3 Bft)
19.07.2009 00:00 12,3 C 86 % 1017,8 hPa 0,0 l/m SW 12,9 km/h (3 Bft)
19.07.2009 01:00 11,6 C 92 % 1017,7 hPa 0,0 l/m SW 9,1 km/h (2 Bft)
19.07.2009 02:00 11,3 C 93 % 1017,5 hPa 0,0 l/m SW 10,1 km/h (2 Bft)
19.07.2009 03:00 11,1 C 92 % 1017,4 hPa 0,0 l/m SW 11,0 km/h (2 Bft)
19.07.2009 04:00 10,6 C 91 % 1017,2 hPa 0,0 l/m SW 11,2 km/h (2 Bft)
19.07.2009 05:00 11,0 C 89 % 1017,0 hPa 0,0 l/m SW 12,4 km/h (3 Bft)
19.07.2009 06:00 11,1 C 92 % 1017,0 hPa 0,2 l/m SW 12,0 km/h (2 Bft)
19.07.2009 07:00 11,2 C 93 % 1017,4 hPa 0,4 l/m SW 15,2 km/h (3 Bft)
19.07.2009 08:00 11,3 C 94 % 1017,7 hPa 0,0 l/m SW 20,0 km/h (4 Bft)
19.07.2009 09:00 12,0 C 92 % 1018,1 hPa 0,0 l/m SW 20,5 km/h (4 Bft)
19.07.2009 10:00 13,7 C 86 % 1018,1 hPa 0,0 l/m W-SW 26,4 km/h (4 Bft)
19.07.2009 11:00 14,6 C 82 % 1018,2 hPa 0,0 l/m SW 27,4 km/h (4 Bft)
19.07.2009 12:00 15,7 C 77 % 1018,3 hPa 0,0 l/m W-SW 24,4 km/h (4 Bft)
19.07.2009 13:00 16,0 C 75 % 1018,1 hPa 0,0 l/m W-SW 29,5 km/h (5 Bft)
19.07.2009 14:00 18,2 C 69 % 1017,6 hPa 0,2 l/m W-SW 31,7 km/h (5 Bft)
19.07.2009 15:00 18,9 C 63 % 1017,4 hPa 0,0 l/m W-SW 30,6 km/h (5 Bft)
19.07.2009 16:00 19,6 C 58 % 1017,4 hPa 0,0 l/m SW 30,7 km/h (5 Bft)
19.07.2009 17:00 19,2 C 58 % 1017,5 hPa 0,0 l/m W 23,9 km/h (4 Bft)
19.07.2009 18:00 19,5 C 52 % 1017,4 hPa 0,0 l/m W-NW 22,1 km/h (4 Bft)
19.07.2009 19:00 18,8 C 54 % 1017,7 hPa 0,0 l/m W-NW 17,7 km/h (3 Bft)
19.07.2009 20:00 17,1 C 65 % 1017,9 hPa 0,0 l/m W-SW 6,7 km/h (2 Bft)
19.07.2009 21:00 15,6 C 71 % 1018,5 hPa 0,0 l/m W 8,3 km/h (2 Bft)
19.07.2009 22:00 15,1 C 70 % 1019,2 hPa 0,0 l/m W-NW 7,0 km/h (2 Bft)
19.07.2009 23:00 14,1 C 80 % 1019,4 hPa 0,0 l/m W-NW 3,1 km/h (1 Bft)
Min-Datum _ 18.07.09 14.07.09 17.07.09 - - 13.07.09
_ Min-Zeit 05:55 18:05 17:20 - - 03:50
Minimum _ 10,3 C 49 % 1006,1 hPa - - 0,0 km/h (0 Bft)
Max-Datum _ 16.07.09 16.07.09 16.07.09 17.07.09 - 17.07.09
_ Max-Zeit 17:55 06:50 08:20 19:20 - 19:35
Maximum _ 28,4 C 99 % 1021,5 hPa 8,2 l/m - 46,7 km/h
W-NW (6 Bft)
Durchschnitt _ 18,2 C 84 % 1014,5 hPa #59,4 l/m SW 11,1 km/h (2 Bft)